Hatgal, Mongolia
Current Conditions -  °F | °C
As of 12:30 AM on Tuesday 27 Jan 2015 (Local Time) from UIII Reporting Station
Clear Clear  
Wind Chill: -26°   Ceiling: Unl
Heat Index: -11°   Visibility: 6mi
Dew Point: -15°   Wind: 7mph
Humidity: 84%   Direction: 110°ESE
Pressure: 30.59"   Gusts: NA
Location:  50.45°N, 100.15°E
Report Text: UIII 261630Z 11003MPS CAVOK M24/M26 Q1036 NOSIG RMK QFE734/097812820350
Loading
Personal Weather Stations






























Interactive Weather Map New forecast layout! Learn more

10-Day Weather Forecast

Advertisements
Track Severe Weather on mobile